YV1932 SVCS-SVMG
Flight info
| Callsign | YV1932 |
|---|---|
| Flight time | 0h 46m |
| Altitude | 22000 |
| Route | PAUJI W30 CBC W20 GEMAP W14 ISAPO |
| Aircraft | AC90/L-SDCFG/C |
Departure
| Time | 2026-05-08 03:32 |
|---|---|
| Airport | Caracas Óscar Machado Zuloaga International Airport (SVCS) |
Arrival
| Time | 2026-05-08 04:18 |
|---|---|
| Airport | Del Caribe Santiago Mariño International Airport (SVMG) |
| Time | Latitude | Longitude | Altitude | Speed | Heading |
|---|---|---|---|---|---|
| 2026-05-08 03:28 | 10.28917 | -66.82083 | 2150 ft | 0 kts | 184° |
| 2026-05-08 03:29 | 10.28916 | -66.82083 | 2150 ft | 2 kts | 184° |
| 2026-05-08 03:29 | 10.28849 | -66.82107 | 2150 ft | 11 kts | 212° |
| 2026-05-08 03:30 | 10.28783 | -66.82167 | 2150 ft | 3 kts | 272° |
| 2026-05-08 03:30 | 10.28790 | -66.82332 | 2150 ft | 27 kts | 273° |
| 2026-05-08 03:31 | 10.28801 | -66.82491 | 2150 ft | 4 kts | 261° |
| 2026-05-08 03:31 | 10.28752 | -66.82505 | 2150 ft | 17 kts | 97° |
| 2026-05-08 03:32 | 10.28723 | -66.82090 | 2150 ft | 124 kts | 95° |
| 2026-05-08 03:32 | 10.28666 | -66.81082 | 3040 ft | 139 kts | 92° |
| 2026-05-08 03:32 | 10.28633 | -66.80192 | 4621 ft | 106 kts | 94° |
| 2026-05-08 03:32 | 10.28743 | -66.79330 | 5741 ft | 143 kts | 60° |
| 2026-05-08 03:33 | 10.29522 | -66.78594 | 6568 ft | 166 kts | 17° |
| 2026-05-08 03:33 | 10.30665 | -66.78415 | 7359 ft | 167 kts | 353° |
| 2026-05-08 03:33 | 10.31841 | -66.78471 | 8121 ft | 173 kts | 349° |
| 2026-05-08 03:33 | 10.33064 | -66.78577 | 8884 ft | 179 kts | 348° |
| 2026-05-08 03:34 | 10.34323 | -66.78697 | 9643 ft | 184 kts | 348° |
| 2026-05-08 03:34 | 10.35604 | -66.78823 | 10398 ft | 187 kts | 348° |
| 2026-05-08 03:34 | 10.36892 | -66.78943 | 11143 ft | 190 kts | 351° |
| 2026-05-08 03:34 | 10.38230 | -66.78846 | 11895 ft | 197 kts | 5° |
| 2026-05-08 03:35 | 10.39457 | -66.78176 | 12640 ft | 209 kts | 40° |
| 2026-05-08 03:35 | 10.40233 | -66.76908 | 13401 ft | 215 kts | 64° |
| 2026-05-08 03:35 | 10.40737 | -66.75471 | 14156 ft | 218 kts | 70° |
| 2026-05-08 03:35 | 10.41175 | -66.74007 | 14902 ft | 219 kts | 71° |
| 2026-05-08 03:36 | 10.41604 | -66.72515 | 15654 ft | 221 kts | 72° |
| 2026-05-08 03:36 | 10.42029 | -66.71018 | 16401 ft | 223 kts | 72° |
| 2026-05-08 03:36 | 10.42457 | -66.69512 | 17299 ft | 214 kts | 72° |
| 2026-05-08 03:36 | 10.42850 | -66.68109 | 18489 ft | 202 kts | 72° |
| 2026-05-08 03:37 | 10.43226 | -66.66761 | 19688 ft | 200 kts | 72° |
| 2026-05-08 03:37 | 10.43633 | -66.65309 | 20354 ft | 226 kts | 72° |
| 2026-05-08 03:37 | 10.44083 | -66.63725 | 20896 ft | 234 kts | 72° |
| 2026-05-08 03:37 | 10.44529 | -66.62156 | 21398 ft | 228 kts | 72° |
| 2026-05-08 03:38 | 10.44958 | -66.60638 | 21838 ft | 227 kts | 72° |
| 2026-05-08 03:38 | 10.45408 | -66.59058 | 21977 ft | 239 kts | 72° |
| 2026-05-08 03:38 | 10.45871 | -66.57391 | 22011 ft | 251 kts | 75° |
| 2026-05-08 03:38 | 10.46296 | -66.55636 | 22008 ft | 259 kts | 66° |
| 2026-05-08 03:39 | 10.47147 | -66.54014 | 22008 ft | 262 kts | 60° |
| 2026-05-08 03:39 | 10.47826 | -66.52280 | 22003 ft | 267 kts | 75° |
| 2026-05-08 03:39 | 10.47842 | -66.50402 | 22000 ft | 269 kts | 104° |
| 2026-05-08 03:39 | 10.47055 | -66.48738 | 22002 ft | 264 kts | 131° |
| 2026-05-08 03:40 | 10.45839 | -66.47346 | 22004 ft | 265 kts | 131° |
| 2026-05-08 03:40 | 10.45057 | -66.45649 | 22000 ft | 270 kts | 103° |
| 2026-05-08 03:40 | 10.45053 | -66.43753 | 22004 ft | 271 kts | 80° |
| 2026-05-08 03:40 | 10.45468 | -66.41880 | 22004 ft | 269 kts | 73° |
| 2026-05-08 03:41 | 10.45993 | -66.40088 | 22001 ft | 263 kts | 71° |
| 2026-05-08 03:41 | 10.46549 | -66.38323 | 21999 ft | 259 kts | 70° |
| 2026-05-08 03:41 | 10.47107 | -66.36589 | 21999 ft | 257 kts | 70° |
| 2026-05-08 03:41 | 10.47661 | -66.34875 | 21999 ft | 256 kts | 70° |
| 2026-05-08 03:42 | 10.48208 | -66.33187 | 21999 ft | 255 kts | 70° |
| 2026-05-08 03:42 | 10.48762 | -66.31478 | 22000 ft | 254 kts | 70° |
| 2026-05-08 03:42 | 10.49315 | -66.29772 | 22000 ft | 254 kts | 70° |
| 2026-05-08 03:42 | 10.49868 | -66.28069 | 22000 ft | 254 kts | 70° |
| 2026-05-08 03:43 | 10.50421 | -66.26364 | 22000 ft | 254 kts | 70° |
| 2026-05-08 03:43 | 10.50974 | -66.24663 | 22000 ft | 254 kts | 70° |
| 2026-05-08 03:43 | 10.51296 | -66.23672 | 22000 ft | 254 kts | 70° |
| 2026-05-08 03:43 | 10.51796 | -66.22134 | 22000 ft | 254 kts | 70° |
| 2026-05-08 03:44 | 10.52350 | -66.20430 | 21998 ft | 254 kts | 70° |
| 2026-05-08 03:44 | 10.52903 | -66.18732 | 21996 ft | 254 kts | 70° |
| 2026-05-08 03:44 | 10.53451 | -66.17050 | 21996 ft | 254 kts | 70° |
| 2026-05-08 03:44 | 10.54004 | -66.15352 | 21996 ft | 254 kts | 70° |
| 2026-05-08 03:45 | 10.54558 | -66.13651 | 21996 ft | 254 kts | 70° |
| 2026-05-08 03:45 | 10.55112 | -66.11951 | 21996 ft | 254 kts | 70° |
| 2026-05-08 03:45 | 10.55670 | -66.10242 | 21996 ft | 254 kts | 70° |
| 2026-05-08 03:45 | 10.56223 | -66.08548 | 21996 ft | 254 kts | 70° |
| 2026-05-08 03:46 | 10.56763 | -66.06858 | 21995 ft | 254 kts | 73° |
| 2026-05-08 03:46 | 10.57083 | -66.05074 | 21996 ft | 255 kts | 82° |
| 2026-05-08 03:46 | 10.57257 | -66.03300 | 21997 ft | 255 kts | 84° |
| 2026-05-08 03:46 | 10.57393 | -66.01513 | 21996 ft | 255 kts | 85° |
| 2026-05-08 03:47 | 10.57520 | -65.99707 | 21996 ft | 255 kts | 85° |
| 2026-05-08 03:47 | 10.57642 | -65.97917 | 21996 ft | 255 kts | 85° |
| 2026-05-08 03:47 | 10.57765 | -65.96116 | 21996 ft | 255 kts | 85° |
| 2026-05-08 03:47 | 10.57890 | -65.94343 | 21996 ft | 255 kts | 84° |
| 2026-05-08 03:48 | 10.58218 | -65.92561 | 21996 ft | 254 kts | 74° |
| 2026-05-08 03:48 | 10.58696 | -65.90849 | 21996 ft | 254 kts | 72° |
| 2026-05-08 03:48 | 10.59177 | -65.89130 | 21996 ft | 254 kts | 72° |
| 2026-05-08 03:48 | 10.59657 | -65.87405 | 21996 ft | 254 kts | 72° |
| 2026-05-08 03:49 | 10.60138 | -65.85672 | 21996 ft | 254 kts | 72° |
| 2026-05-08 03:49 | 10.60503 | -65.83910 | 21996 ft | 255 kts | 81° |
| 2026-05-08 03:49 | 10.60697 | -65.82123 | 21996 ft | 255 kts | 84° |
| 2026-05-08 03:49 | 10.60841 | -65.80326 | 21996 ft | 255 kts | 85° |
| 2026-05-08 03:50 | 10.60971 | -65.78533 | 21996 ft | 255 kts | 85° |
| 2026-05-08 03:50 | 10.61096 | -65.76758 | 21996 ft | 255 kts | 85° |
| 2026-05-08 03:50 | 10.61223 | -65.74936 | 21996 ft | 255 kts | 85° |
| 2026-05-08 03:50 | 10.61347 | -65.73164 | 21996 ft | 255 kts | 85° |
| 2026-05-08 03:51 | 10.61473 | -65.71365 | 21996 ft | 255 kts | 85° |
| 2026-05-08 03:51 | 10.61599 | -65.69572 | 21996 ft | 255 kts | 85° |
| 2026-05-08 03:51 | 10.61725 | -65.67778 | 21996 ft | 255 kts | 85° |
| 2026-05-08 03:51 | 10.61852 | -65.65981 | 21996 ft | 255 kts | 85° |
| 2026-05-08 03:52 | 10.61975 | -65.64175 | 21996 ft | 255 kts | 86° |
| 2026-05-08 03:52 | 10.62027 | -65.62372 | 21996 ft | 255 kts | 90° |
| 2026-05-08 03:52 | 10.61994 | -65.60570 | 21996 ft | 255 kts | 92° |
| 2026-05-08 03:52 | 10.61958 | -65.58793 | 21996 ft | 255 kts | 89° |
| 2026-05-08 03:53 | 10.62029 | -65.56994 | 21996 ft | 255 kts | 86° |
| 2026-05-08 03:53 | 10.62204 | -65.55208 | 21994 ft | 254 kts | 75° |
| 2026-05-08 03:53 | 10.62953 | -65.53611 | 21999 ft | 250 kts | 54° |
| 2026-05-08 03:53 | 10.63675 | -65.51990 | 21998 ft | 254 kts | 73° |
| 2026-05-08 03:54 | 10.63979 | -65.50224 | 21999 ft | 254 kts | 83° |
| 2026-05-08 03:54 | 10.64143 | -65.48360 | 21998 ft | 255 kts | 85° |
| 2026-05-08 03:54 | 10.64260 | -65.46563 | 21996 ft | 255 kts | 86° |
| 2026-05-08 03:54 | 10.64367 | -65.44759 | 21996 ft | 255 kts | 86° |
| 2026-05-08 03:55 | 10.64470 | -65.42981 | 21996 ft | 255 kts | 86° |
| 2026-05-08 03:55 | 10.64574 | -65.41156 | 21996 ft | 255 kts | 86° |
| 2026-05-08 03:55 | 10.64675 | -65.39390 | 21996 ft | 255 kts | 86° |
| 2026-05-08 03:55 | 10.64779 | -65.37583 | 21996 ft | 255 kts | 86° |
| 2026-05-08 03:56 | 10.64882 | -65.35789 | 21996 ft | 255 kts | 86° |
| 2026-05-08 03:56 | 10.64987 | -65.33982 | 21996 ft | 255 kts | 86° |
| 2026-05-08 03:56 | 10.65090 | -65.32188 | 21996 ft | 255 kts | 86° |
| 2026-05-08 03:56 | 10.65195 | -65.30391 | 21996 ft | 255 kts | 86° |
| 2026-05-08 03:57 | 10.65310 | -65.28588 | 21996 ft | 255 kts | 84° |
| 2026-05-08 03:57 | 10.65531 | -65.26820 | 21996 ft | 255 kts | 81° |
| 2026-05-08 03:57 | 10.65808 | -65.25046 | 21996 ft | 255 kts | 79° |
| 2026-05-08 03:57 | 10.66102 | -65.23267 | 21996 ft | 255 kts | 79° |
| 2026-05-08 03:58 | 10.66400 | -65.21494 | 21996 ft | 255 kts | 79° |
| 2026-05-08 03:58 | 10.66700 | -65.19719 | 21996 ft | 255 kts | 79° |
| 2026-05-08 03:58 | 10.67000 | -65.17945 | 21996 ft | 255 kts | 79° |
| 2026-05-08 03:58 | 10.67301 | -65.16167 | 21996 ft | 255 kts | 79° |
| 2026-05-08 03:59 | 10.67601 | -65.14401 | 21996 ft | 255 kts | 79° |
| 2026-05-08 03:59 | 10.67903 | -65.12619 | 21996 ft | 255 kts | 79° |
| 2026-05-08 03:59 | 10.68204 | -65.10849 | 21942 ft | 257 kts | 79° |
| 2026-05-08 03:59 | 10.68515 | -65.09022 | 21708 ft | 265 kts | 79° |
| 2026-05-08 04:00 | 10.68834 | -65.07157 | 21402 ft | 271 kts | 79° |
| 2026-05-08 04:00 | 10.69156 | -65.05283 | 21086 ft | 274 kts | 79° |
| 2026-05-08 04:00 | 10.69483 | -65.03381 | 20762 ft | 273 kts | 79° |
| 2026-05-08 04:00 | 10.69810 | -65.01477 | 20436 ft | 272 kts | 79° |
| 2026-05-08 04:01 | 10.70136 | -64.99583 | 20111 ft | 271 kts | 79° |
| 2026-05-08 04:01 | 10.70461 | -64.97699 | 19786 ft | 271 kts | 79° |
| 2026-05-08 04:01 | 10.70783 | -64.95825 | 19462 ft | 270 kts | 79° |
| 2026-05-08 04:01 | 10.71107 | -64.93950 | 19136 ft | 268 kts | 79° |
| 2026-05-08 04:02 | 10.71424 | -64.92109 | 18814 ft | 266 kts | 79° |
| 2026-05-08 04:02 | 10.71741 | -64.90272 | 18489 ft | 263 kts | 79° |
| 2026-05-08 04:02 | 10.72057 | -64.88442 | 18164 ft | 262 kts | 79° |
| 2026-05-08 04:02 | 10.72370 | -64.86628 | 17839 ft | 261 kts | 79° |
| 2026-05-08 04:03 | 10.72684 | -64.84815 | 17513 ft | 259 kts | 79° |
| 2026-05-08 04:03 | 10.73308 | -64.81212 | 16862 ft | 257 kts | 79° |
| 2026-05-08 04:03 | 10.73618 | -64.79423 | 16536 ft | 256 kts | 79° |
| 2026-05-08 04:04 | 10.73927 | -64.77649 | 16212 ft | 255 kts | 79° |
| 2026-05-08 04:04 | 10.74232 | -64.75889 | 15890 ft | 255 kts | 79° |
| 2026-05-08 04:04 | 10.74540 | -64.74124 | 15566 ft | 254 kts | 79° |
| 2026-05-08 04:04 | 10.74846 | -64.72366 | 15241 ft | 253 kts | 79° |
| 2026-05-08 04:05 | 10.75153 | -64.70608 | 14916 ft | 252 kts | 79° |
| 2026-05-08 04:05 | 10.75458 | -64.68857 | 14591 ft | 251 kts | 79° |
| 2026-05-08 04:05 | 10.75774 | -64.67117 | 14266 ft | 250 kts | 78° |
| 2026-05-08 04:05 | 10.76148 | -64.65392 | 13940 ft | 249 kts | 75° |
| 2026-05-08 04:06 | 10.76595 | -64.63696 | 13615 ft | 248 kts | 72° |
| 2026-05-08 04:06 | 10.77045 | -64.62025 | 13293 ft | 247 kts | 75° |
| 2026-05-08 04:06 | 10.77420 | -64.60324 | 12969 ft | 247 kts | 77° |
| 2026-05-08 04:06 | 10.77651 | -64.59174 | 12750 ft | 246 kts | 77° |
| 2026-05-08 04:07 | 10.78091 | -64.56916 | 12319 ft | 245 kts | 78° |
| 2026-05-08 04:07 | 10.78420 | -64.55214 | 11992 ft | 244 kts | 78° |
| 2026-05-08 04:07 | 10.78744 | -64.53529 | 11669 ft | 243 kts | 78° |
| 2026-05-08 04:07 | 10.78960 | -64.52411 | 11432 ft | 244 kts | 78° |
| 2026-05-08 04:08 | 10.79288 | -64.50711 | 11055 ft | 245 kts | 78° |
| 2026-05-08 04:08 | 10.79618 | -64.49005 | 10710 ft | 246 kts | 78° |
| 2026-05-08 04:08 | 10.79948 | -64.47299 | 10386 ft | 246 kts | 78° |
| 2026-05-08 04:08 | 10.80279 | -64.45593 | 10061 ft | 246 kts | 78° |
| 2026-05-08 04:09 | 10.80718 | -64.43332 | 9629 ft | 245 kts | 78° |
| 2026-05-08 04:09 | 10.80940 | -64.42189 | 9410 ft | 245 kts | 78° |
| 2026-05-08 04:09 | 10.81266 | -64.40515 | 9089 ft | 244 kts | 78° |
| 2026-05-08 04:09 | 10.81595 | -64.38827 | 8764 ft | 243 kts | 78° |
| 2026-05-08 04:10 | 10.81922 | -64.37149 | 8439 ft | 242 kts | 78° |
| 2026-05-08 04:10 | 10.82249 | -64.35475 | 8114 ft | 241 kts | 78° |
| 2026-05-08 04:10 | 10.82681 | -64.33264 | 7683 ft | 240 kts | 78° |
| 2026-05-08 04:10 | 10.82898 | -64.32154 | 7463 ft | 239 kts | 78° |
| 2026-05-08 04:11 | 10.83228 | -64.30469 | 7025 ft | 241 kts | 78° |
| 2026-05-08 04:11 | 10.83552 | -64.28816 | 6575 ft | 235 kts | 78° |
| 2026-05-08 04:11 | 10.83857 | -64.27239 | 6231 ft | 226 kts | 77° |
| 2026-05-08 04:11 | 10.84145 | -64.25698 | 5906 ft | 219 kts | 77° |
| 2026-05-08 04:12 | 10.84415 | -64.24183 | 5579 ft | 214 kts | 77° |
| 2026-05-08 04:12 | 10.84670 | -64.22713 | 5255 ft | 210 kts | 77° |
| 2026-05-08 04:12 | 10.84919 | -64.21262 | 4928 ft | 206 kts | 78° |
| 2026-05-08 04:12 | 10.85165 | -64.19842 | 4603 ft | 202 kts | 78° |
| 2026-05-08 04:13 | 10.85415 | -64.18428 | 4276 ft | 202 kts | 78° |
| 2026-05-08 04:13 | 10.85670 | -64.17044 | 3955 ft | 201 kts | 78° |
| 2026-05-08 04:13 | 10.85937 | -64.15659 | 3633 ft | 200 kts | 78° |
| 2026-05-08 04:13 | 10.86218 | -64.14268 | 3306 ft | 199 kts | 78° |
| 2026-05-08 04:14 | 10.86507 | -64.12903 | 2982 ft | 198 kts | 78° |
| 2026-05-08 04:14 | 10.86802 | -64.11530 | 2655 ft | 197 kts | 77° |
| 2026-05-08 04:14 | 10.87092 | -64.10188 | 2334 ft | 196 kts | 77° |
| 2026-05-08 04:14 | 10.87381 | -64.08854 | 2009 ft | 191 kts | 77° |
| 2026-05-08 04:15 | 10.87842 | -64.07617 | 1742 ft | 179 kts | 68° |
| 2026-05-08 04:15 | 10.88233 | -64.06542 | 1573 ft | 140 kts | 71° |
| 2026-05-08 04:15 | 10.88540 | -64.05708 | 1332 ft | 120 kts | 69° |
| 2026-05-08 04:15 | 10.88825 | -64.04926 | 1068 ft | 121 kts | 69° |
| 2026-05-08 04:16 | 10.89104 | -64.04127 | 885 ft | 120 kts | 71° |
| 2026-05-08 04:16 | 10.89377 | -64.03341 | 787 ft | 120 kts | 69° |
| 2026-05-08 04:16 | 10.89690 | -64.02518 | 745 ft | 127 kts | 72° |
| 2026-05-08 04:16 | 10.89973 | -64.01693 | 704 ft | 119 kts | 71° |
| 2026-05-08 04:17 | 10.90213 | -64.00897 | 617 ft | 119 kts | 73° |
| 2026-05-08 04:17 | 10.90446 | -64.00096 | 564 ft | 121 kts | 73° |
| 2026-05-08 04:17 | 10.90665 | -63.99265 | 432 ft | 121 kts | 75° |
| 2026-05-08 04:17 | 10.90882 | -63.98468 | 232 ft | 109 kts | 75° |
| 2026-05-08 04:18 | 10.91025 | -63.97795 | 80 ft | 84 kts | 79° |
| 2026-05-08 04:18 | 10.91097 | -63.97409 | 79 ft | 25 kts | 79° |
| 2026-05-08 04:18 | 10.91103 | -63.97378 | 79 ft | 0 kts | 79° |
| 2026-05-08 04:18 | 10.91143 | -63.97257 | 79 ft | 32 kts | 69° |
| 2026-05-08 04:19 | 10.91191 | -63.97126 | 79 ft | 1 kts | 29° |
| 2026-05-08 04:19 | 10.91318 | -63.97148 | 79 ft | 31 kts | 346° |
| 2026-05-08 04:19 | 10.91471 | -63.97187 | 79 ft | 16 kts | 342° |
| 2026-05-08 04:19 | 10.91510 | -63.97222 | 79 ft | 5 kts | 275° |
| 2026-05-08 04:20 | 10.91510 | -63.97223 | 79 ft | 0 kts | 261° |